Terminal Aerodrome Forecast
Issued by NWS Austin/San Antonio, TX

Home | Current Version | Previous Version | Text Only | Print | Product List | Glossary On
Versions: 1 2 3 4 5 6 7 8 9 10 11 12 13 14 15 16 17 18 19
000
FTUS44 KEWX 220500
TAFAUS
TAF
KAUS 220539Z 2206/2312 18007KT P6SM SCT008 OVC020
      TEMPO 2206/2209 6SM -DZ BR BKN008
     FM220900 19007KT 5SM -DZ BR OVC007
     FM221600 22010KT P6SM BKN015
     FM221800 25011KT P6SM BKN250
     FM230000 36004KT P6SM BKN250=

USA.gov is the U.S. government's official web portal to all federal, state and local government web resources and services.